createdAt,value
2022-08-26T15:43:11.308Z,20.54
2022-08-26T15:50:53.606Z,20.62
2022-08-26T15:58:30.335Z,20.67
2022-08-26T16:06:04.453Z,20.66
2022-08-26T16:13:40.283Z,20.66
2022-08-26T16:21:16.799Z,20.65
2022-08-26T16:28:52.336Z,20.70
2022-08-26T16:36:26.356Z,20.68
2022-08-26T16:44:02.012Z,20.70
2022-08-26T16:51:38.268Z,20.75
2022-08-26T16:59:13.674Z,20.76
2022-08-26T17:06:47.710Z,20.80
2022-08-26T17:14:22.831Z,20.83
2022-08-26T17:21:56.589Z,20.84
2022-08-26T17:29:31.734Z,20.84
2022-08-26T17:37:05.679Z,20.83
2022-08-26T17:44:41.101Z,20.83
2022-08-26T17:52:14.904Z,20.82
2022-08-26T17:59:50.088Z,20.78
2022-08-26T18:07:26.516Z,20.78
2022-08-26T18:15:01.805Z,20.68
2022-08-26T18:22:35.561Z,20.65
2022-08-26T18:30:16.636Z,20.64
2022-08-26T18:37:50.675Z,20.65
2022-08-26T18:45:26.187Z,20.67
2022-08-26T18:52:59.931Z,20.62
2022-08-26T19:00:35.023Z,20.56
2022-08-26T19:08:09.246Z,20.42
2022-08-26T19:15:46.147Z,20.41
2022-08-26T19:23:31.299Z,20.43
2022-08-26T19:31:10.467Z,20.40
2022-08-26T19:38:44.733Z,20.39
2022-08-26T19:46:22.266Z,20.38
2022-08-26T19:53:59.291Z,20.36
2022-08-26T20:01:34.491Z,20.36
2022-08-26T20:09:08.382Z,20.30
2022-08-26T20:16:43.988Z,20.31
2022-08-26T20:24:20.988Z,20.30
2022-08-26T20:31:56.549Z,20.30
2022-08-26T20:39:30.438Z,20.27
2022-08-26T20:47:06.658Z,20.29
2022-08-26T20:54:40.486Z,20.30
2022-08-26T21:02:15.880Z,20.28
2022-08-26T21:09:49.663Z,20.26
2022-08-26T21:17:27.129Z,20.25
2022-08-26T21:25:01.529Z,20.23
2022-08-26T21:32:36.855Z,20.21
2022-08-26T21:40:11.661Z,20.17
2022-08-26T21:47:46.702Z,20.15
2022-08-26T21:55:20.702Z,20.10
2022-08-26T22:03:00.715Z,20.10
2022-08-26T22:10:34.694Z,20.10
2022-08-26T22:18:10.129Z,20.12
2022-08-26T22:25:44.153Z,20.06
2022-08-26T22:33:19.394Z,20.05
2022-08-26T22:40:56.576Z,20.08
2022-08-26T22:48:32.073Z,20.02
2022-08-26T22:56:06.504Z,19.96
2022-08-26T23:03:41.965Z,19.87
2022-08-26T23:11:16.110Z,19.80
2022-08-26T23:18:51.484Z,19.73
2022-08-26T23:26:25.334Z,19.71
2022-08-26T23:34:18.338Z,19.71
2022-08-26T23:41:52.243Z,19.72
2022-08-26T23:49:27.750Z,19.68
2022-08-26T23:57:01.787Z,19.68
